createdAt,value
2023-03-22T00:02:14.083Z,4.81
2023-03-22T00:04:43.080Z,4.81
2023-03-22T00:07:09.853Z,4.80
2023-03-22T00:09:36.753Z,4.81
2023-03-22T00:12:04.132Z,4.84
2023-03-22T00:14:30.971Z,4.80
2023-03-22T00:16:57.809Z,4.68
2023-03-22T00:19:24.648Z,4.81
2023-03-22T00:21:51.634Z,4.85
2023-03-22T00:24:18.340Z,4.84
2023-03-22T00:26:47.341Z,4.81
2023-03-22T00:29:14.062Z,4.74
2023-03-22T00:31:41.395Z,4.71
2023-03-22T00:34:08.172Z,4.69
2023-03-22T00:36:34.948Z,4.66
2023-03-22T00:39:01.731Z,4.68
2023-03-22T00:41:28.464Z,4.65
2023-03-22T00:43:55.386Z,4.66
2023-03-22T00:46:22.464Z,4.68
2023-03-22T00:48:49.294Z,4.70
2023-03-22T00:51:16.850Z,4.71
2023-03-22T00:53:43.967Z,4.73
2023-03-22T00:56:15.985Z,4.72
2023-03-22T00:58:43.337Z,4.72
2023-03-22T01:01:14.179Z,4.76
2023-03-22T01:03:43.194Z,4.67
2023-03-22T01:06:11.189Z,4.68
2023-03-22T01:08:39.438Z,4.71
2023-03-22T01:11:07.908Z,4.71
2023-03-22T01:13:38.951Z,4.71
2023-03-22T01:16:07.183Z,4.72
2023-03-22T01:18:34.967Z,4.72
2023-03-22T01:21:01.923Z,4.62
2023-03-22T01:23:28.745Z,4.61
2023-03-22T01:25:55.565Z,4.52
2023-03-22T01:28:22.271Z,4.53
2023-03-22T01:30:50.177Z,4.49
2023-03-22T01:33:17.342Z,4.49
2023-03-22T01:35:44.133Z,4.52
2023-03-22T01:38:10.915Z,4.55
2023-03-22T01:40:38.798Z,4.57
2023-03-22T01:43:16.068Z,4.53
2023-03-22T01:45:52.393Z,4.65
2023-03-22T01:48:22.565Z,4.68
2023-03-22T01:51:16.205Z,4.63
2023-03-22T01:53:52.831Z,4.63
2023-03-22T01:56:23.365Z,4.68
2023-03-22T01:58:51.060Z,4.62
2023-03-22T02:01:17.904Z,4.57
2023-03-22T02:03:50.515Z,4.52
2023-03-22T02:06:18.986Z,4.46
2023-03-22T02:08:45.868Z,4.50
2023-03-22T02:11:29.483Z,4.55
2023-03-22T02:14:20.379Z,4.57
2023-03-22T02:17:05.329Z,4.56
2023-03-22T02:19:54.297Z,4.53
2023-03-22T02:22:28.243Z,4.51
2023-03-22T02:25:09.679Z,4.51
2023-03-22T02:27:54.149Z,4.50
2023-03-22T02:30:36.434Z,4.46
2023-03-22T02:33:29.007Z,4.35
2023-03-22T02:36:05.368Z,4.44
2023-03-22T02:39:04.776Z,4.47
2023-03-22T02:41:57.518Z,4.51
2023-03-22T02:44:45.748Z,4.52
2023-03-22T02:47:49.964Z,4.47
2023-03-22T02:50:22.769Z,4.46
2023-03-22T02:52:53.002Z,4.47
2023-03-22T02:55:41.077Z,4.49
2023-03-22T02:58:14.405Z,4.49
2023-03-22T03:00:43.253Z,4.47
2023-03-22T03:03:12.857Z,4.49
2023-03-22T03:05:43.407Z,4.49
2023-03-22T03:08:12.512Z,4.49
2023-03-22T03:10:41.422Z,4.49
2023-03-22T03:13:17.542Z,4.47
2023-03-22T03:15:48.885Z,4.41
2023-03-22T03:19:08.987Z,4.44
2023-03-22T03:22:00.628Z,4.43
2023-03-22T03:24:39.369Z,4.36
2023-03-22T03:27:14.950Z,4.30
2023-03-22T03:30:14.132Z,4.24
2023-03-22T03:32:48.619Z,4.21
2023-03-22T03:35:22.762Z,4.23
2023-03-22T03:37:54.677Z,4.15
2023-03-22T03:40:35.110Z,4.14
2023-03-22T03:43:06.436Z,4.12
2023-03-22T03:45:36.187Z,4.15
2023-03-22T03:48:08.576Z,4.15
2023-03-22T03:50:35.970Z,4.15
2023-03-22T03:53:03.369Z,4.03
2023-03-22T03:55:31.035Z,4.09
2023-03-22T03:57:57.775Z,3.98
2023-03-22T04:00:24.646Z,3.87
2023-03-22T04:02:51.411Z,3.65
2023-03-22T04:05:18.520Z,3.73
2023-03-22T04:07:45.339Z,3.64
2023-03-22T04:10:12.369Z,3.63
2023-03-22T04:12:39.755Z,3.62
2023-03-22T04:15:07.104Z,3.56
2023-03-22T04:17:33.822Z,3.58
2023-03-22T04:20:05.336Z,3.60
2023-03-22T04:22:34.772Z,3.57
2023-03-22T04:25:03.680Z,3.55
2023-03-22T04:27:30.329Z,3.52
2023-03-22T04:29:58.143Z,3.50
2023-03-22T04:32:24.894Z,3.53
2023-03-22T04:34:52.951Z,3.57
2023-03-22T04:37:22.622Z,3.61
2023-03-22T04:39:49.371Z,3.66
2023-03-22T04:42:16.188Z,3.67
2023-03-22T04:44:44.939Z,3.70
2023-03-22T04:47:12.039Z,3.67
2023-03-22T04:49:38.952Z,3.65
2023-03-22T04:52:05.786Z,3.60
2023-03-22T04:54:32.517Z,3.53
2023-03-22T04:56:59.240Z,3.49
2023-03-22T04:59:26.248Z,3.49
2023-03-22T05:01:53.061Z,3.48
2023-03-22T05:04:19.876Z,3.42
2023-03-22T05:06:47.228Z,3.41
2023-03-22T05:09:15.284Z,3.35
2023-03-22T05:11:42.343Z,3.25
2023-03-22T05:14:10.067Z,3.11
2023-03-22T05:16:40.688Z,3.08
2023-03-22T05:19:14.231Z,3.22
2023-03-22T05:21:44.138Z,3.20
2023-03-22T05:24:11.949Z,3.14
2023-03-22T05:26:42.503Z,3.11
2023-03-22T05:29:11.163Z,3.09
2023-03-22T05:31:37.963Z,3.15
2023-03-22T05:34:04.757Z,3.23
2023-03-22T05:36:31.650Z,3.17
2023-03-22T05:38:58.378Z,3.08
2023-03-22T05:41:25.441Z,3.08
2023-03-22T05:43:52.246Z,3.11
2023-03-22T05:46:19.233Z,3.04
2023-03-22T05:48:46.021Z,3.03
2023-03-22T05:51:19.863Z,3.02
2023-03-22T05:53:48.125Z,2.92
2023-03-22T05:56:15.674Z,3.09
2023-03-22T05:58:42.765Z,3.15
2023-03-22T06:01:11.819Z,3.17
2023-03-22T06:03:39.180Z,3.14
2023-03-22T06:06:10.679Z,3.06
2023-03-22T06:08:40.592Z,3.08
2023-03-22T06:11:07.961Z,3.13
2023-03-22T06:13:36.195Z,3.15
2023-03-22T06:16:04.429Z,3.18
2023-03-22T06:18:31.786Z,3.10
2023-03-22T06:20:58.671Z,3.25
2023-03-22T06:23:25.429Z,3.28
2023-03-22T06:25:52.397Z,3.27
2023-03-22T06:28:19.159Z,2.93
2023-03-22T06:30:46.036Z,3.23
2023-03-22T06:33:12.871Z,3.25
2023-03-22T06:35:39.776Z,3.25
2023-03-22T06:38:06.804Z,3.22
2023-03-22T06:40:34.822Z,3.31
2023-03-22T06:43:05.172Z,3.40
2023-03-22T06:45:33.702Z,3.39
2023-03-22T06:48:01.300Z,3.42
2023-03-22T06:50:29.470Z,3.33
2023-03-22T06:52:56.875Z,3.32
2023-03-22T06:55:23.804Z,3.37
2023-03-22T06:57:50.848Z,3.37
2023-03-22T07:00:17.960Z,3.39
2023-03-22T07:02:44.670Z,3.41
2023-03-22T07:05:11.357Z,3.42
2023-03-22T07:07:38.435Z,3.42
2023-03-22T07:10:07.884Z,3.40
2023-03-22T07:12:34.867Z,3.38
2023-03-22T07:15:03.550Z,3.44
2023-03-22T07:17:30.362Z,3.52
2023-03-22T07:19:57.220Z,3.55
2023-03-22T07:22:25.049Z,3.57
2023-03-22T07:24:57.276Z,3.62
2023-03-22T07:27:25.434Z,3.65
2023-03-22T07:29:52.396Z,3.64
2023-03-22T07:32:19.260Z,3.71
2023-03-22T07:34:46.580Z,3.78
2023-03-22T07:37:13.367Z,3.80
2023-03-22T07:39:40.174Z,3.76
2023-03-22T07:42:07.026Z,3.79
2023-03-22T07:44:33.922Z,3.82
2023-03-22T07:47:00.799Z,3.74
2023-03-22T07:49:27.749Z,3.60
2023-03-22T07:51:54.547Z,3.72
2023-03-22T07:54:33.034Z,3.75
2023-03-22T07:57:01.234Z,3.67
2023-03-22T07:59:28.276Z,3.80
2023-03-22T08:01:55.182Z,3.70
2023-03-22T08:04:22.696Z,3.80
2023-03-22T08:06:50.034Z,3.88
2023-03-22T08:09:17.332Z,3.88
2023-03-22T08:11:44.047Z,3.96
2023-03-22T08:14:10.924Z,4.00
2023-03-22T08:16:38.674Z,4.12
2023-03-22T08:19:05.698Z,4.15
2023-03-22T08:21:32.523Z,4.20
2023-03-22T08:23:59.293Z,4.25
2023-03-22T08:26:26.258Z,4.33
2023-03-22T08:28:53.254Z,4.33
2023-03-22T08:31:20.446Z,4.35
2023-03-22T08:33:47.382Z,4.42
2023-03-22T08:36:17.551Z,4.54
2023-03-22T08:38:45.027Z,4.59
2023-03-22T08:41:13.171Z,4.59
2023-03-22T08:43:40.048Z,4.58
2023-03-22T08:46:06.867Z,4.60
2023-03-22T08:48:35.832Z,4.64
2023-03-22T08:51:02.892Z,4.69
2023-03-22T08:53:29.727Z,4.71
2023-03-22T08:55:58.229Z,4.90
2023-03-22T08:58:25.144Z,5.05
2023-03-22T09:00:52.386Z,5.10
2023-03-22T09:03:19.267Z,5.26
2023-03-22T09:05:46.396Z,5.30
2023-03-22T09:08:19.288Z,5.36
2023-03-22T09:10:52.625Z,5.47
2023-03-22T09:13:20.507Z,5.58
2023-03-22T09:15:48.039Z,5.65
2023-03-22T09:18:16.290Z,5.64
2023-03-22T09:20:44.746Z,5.82
2023-03-22T09:23:12.454Z,5.91
2023-03-22T09:25:39.417Z,6.10
2023-03-22T09:28:06.343Z,6.36
2023-03-22T09:30:33.156Z,6.68
2023-03-22T09:32:59.903Z,7.18
2023-03-22T09:35:26.624Z,7.76
2023-03-22T09:37:54.698Z,8.11
2023-03-22T09:40:26.902Z,8.58
2023-03-22T09:42:56.778Z,9.12
2023-03-22T09:45:44.443Z,9.94
2023-03-22T09:48:27.809Z,10.45
2023-03-22T09:50:55.777Z,10.49
2023-03-22T09:53:25.006Z,10.61
2023-03-22T09:56:26.144Z,10.99
2023-03-22T09:59:16.025Z,11.09
2023-03-22T10:01:49.001Z,10.69
2023-03-22T10:04:21.658Z,10.59
2023-03-22T10:06:55.351Z,10.24
2023-03-22T10:10:05.999Z,10.15
2023-03-22T10:13:00.119Z,9.55
2023-03-22T10:15:34.673Z,9.04
2023-03-22T10:18:03.564Z,8.72
2023-03-22T10:20:34.327Z,8.70
2023-03-22T10:23:04.699Z,9.17
2023-03-22T10:25:36.973Z,9.54
2023-03-22T10:28:26.847Z,9.65
2023-03-22T10:30:56.388Z,9.17
2023-03-22T10:33:38.855Z,8.93
2023-03-22T10:36:13.434Z,8.75
2023-03-22T10:38:47.951Z,9.23
2023-03-22T10:41:18.636Z,9.92
2023-03-22T10:43:50.700Z,10.05
2023-03-22T10:46:24.138Z,10.25
2023-03-22T10:48:54.736Z,10.10
2023-03-22T10:51:29.337Z,9.76
2023-03-22T10:53:58.295Z,9.52
2023-03-22T10:56:25.532Z,9.41
2023-03-22T10:58:52.699Z,9.25
2023-03-22T11:01:37.081Z,9.07
2023-03-22T11:04:03.883Z,8.83
2023-03-22T11:06:37.039Z,8.57
2023-03-22T11:09:23.813Z,8.32
2023-03-22T11:11:54.377Z,8.09
2023-03-22T11:14:31.888Z,7.92
2023-03-22T11:17:08.159Z,7.86
2023-03-22T11:19:37.625Z,7.85
2023-03-22T11:22:23.335Z,7.80
2023-03-22T11:24:51.759Z,7.81
2023-03-22T11:27:28.111Z,7.86
2023-03-22T11:30:16.971Z,7.88
2023-03-22T11:32:43.697Z,7.87
2023-03-22T11:35:16.785Z,7.91
2023-03-22T11:37:45.949Z,7.91
2023-03-22T11:40:19.153Z,8.08
2023-03-22T11:42:47.808Z,8.34
2023-03-22T11:45:21.680Z,8.27
2023-03-22T11:47:48.780Z,8.09
2023-03-22T11:50:37.459Z,7.94
2023-03-22T11:53:06.919Z,7.74
2023-03-22T11:55:36.424Z,7.66
2023-03-22T11:58:05.015Z,7.63
2023-03-22T12:00:34.085Z,7.62
2023-03-22T12:03:10.184Z,7.57
2023-03-22T12:05:40.656Z,7.43
2023-03-22T12:08:20.916Z,7.37
2023-03-22T12:10:55.927Z,7.38
2023-03-22T12:13:36.804Z,7.27
2023-03-22T12:16:07.061Z,7.34
2023-03-22T12:19:24.666Z,7.40
2023-03-22T12:21:52.182Z,7.36
2023-03-22T12:24:32.739Z,7.35
2023-03-22T12:27:17.286Z,7.29
2023-03-22T12:30:18.641Z,7.29
2023-03-22T12:32:51.313Z,7.25
2023-03-22T12:35:31.475Z,7.28
2023-03-22T12:38:01.868Z,7.35
2023-03-22T12:40:34.773Z,7.42
2023-03-22T12:43:14.578Z,7.43
2023-03-22T12:45:47.314Z,7.40
2023-03-22T12:48:35.722Z,7.34
2023-03-22T12:51:06.434Z,7.38
2023-03-22T12:53:42.746Z,7.38
2023-03-22T12:56:16.888Z,7.38
2023-03-22T12:58:49.022Z,7.42
2023-03-22T13:01:46.016Z,7.48
2023-03-22T13:04:31.403Z,7.50
2023-03-22T13:07:14.809Z,7.44
2023-03-22T13:09:43.035Z,7.39
2023-03-22T13:12:16.577Z,7.44
2023-03-22T13:14:49.885Z,7.46
2023-03-22T13:17:22.740Z,7.40
2023-03-22T13:20:00.065Z,7.30
2023-03-22T13:22:38.957Z,7.22
2023-03-22T13:25:12.644Z,7.19
2023-03-22T13:27:45.726Z,7.14
2023-03-22T13:30:23.321Z,7.01
2023-03-22T13:32:56.283Z,6.97
2023-03-22T13:35:42.281Z,6.96
2023-03-22T13:38:16.258Z,6.86
2023-03-22T13:40:53.668Z,6.79
2023-03-22T13:43:25.936Z,6.70
2023-03-22T13:46:17.917Z,6.71
2023-03-22T13:49:00.299Z,6.65
2023-03-22T13:51:33.255Z,6.66
2023-03-22T13:54:08.920Z,6.68
2023-03-22T13:57:01.546Z,6.72
2023-03-22T13:59:29.968Z,6.64
2023-03-22T14:02:12.080Z,6.58
2023-03-22T14:04:42.634Z,6.54
2023-03-22T14:07:25.869Z,6.48
2023-03-22T14:09:57.606Z,6.45
2023-03-22T14:13:02.726Z,6.44
2023-03-22T14:15:37.827Z,6.44
2023-03-22T14:18:14.844Z,6.49
2023-03-22T14:20:42.086Z,6.45
